createdAt,value
2018-05-17T00:00:56.716Z,4.63
2018-05-17T00:03:24.566Z,4.67
2018-05-17T00:05:52.432Z,5.83
2018-05-17T00:08:21.084Z,5.87
2018-05-17T00:10:48.955Z,4.00
2018-05-17T00:13:16.825Z,13.30
2018-05-17T00:15:49.798Z,7.13
2018-05-17T00:18:17.743Z,4.40
2018-05-17T00:20:45.670Z,4.73
2018-05-17T00:23:14.301Z,13.80
2018-05-17T00:25:42.195Z,4.27
2018-05-17T00:28:10.116Z,5.43
2018-05-17T00:30:38.018Z,4.87
2018-05-17T00:33:05.925Z,7.70
2018-05-17T00:35:34.603Z,5.13
2018-05-17T00:38:03.203Z,8.60
2018-05-17T00:40:31.059Z,6.30
2018-05-17T00:42:59.731Z,7.90
2018-05-17T00:45:28.449Z,6.70
2018-05-17T00:47:56.299Z,4.90
2018-05-17T00:50:24.181Z,5.80
2018-05-17T00:53:03.752Z,4.53
2018-05-17T00:55:31.621Z,4.50
2018-05-17T00:58:00.274Z,5.03
2018-05-17T01:00:28.146Z,5.17
2018-05-17T01:02:55.997Z,3.77
2018-05-17T01:05:23.913Z,4.70
2018-05-17T01:07:51.762Z,5.37
2018-05-17T01:10:19.661Z,6.87
2018-05-17T01:12:47.540Z,4.80
2018-05-17T01:15:16.856Z,4.83
2018-05-17T01:17:45.467Z,6.00
2018-05-17T01:20:13.304Z,5.10
2018-05-17T01:22:41.930Z,4.37
2018-05-17T01:25:09.878Z,4.87
2018-05-17T01:27:37.789Z,7.93
2018-05-17T01:30:05.731Z,4.10
2018-05-17T01:32:33.602Z,4.37
2018-05-17T01:35:01.584Z,4.50
2018-05-17T01:37:41.213Z,5.53
2018-05-17T01:40:09.135Z,6.47
2018-05-17T01:42:37.790Z,9.77
2018-05-17T01:45:05.764Z,4.90
2018-05-17T01:47:33.614Z,8.57
2018-05-17T01:50:01.508Z,5.43
2018-05-17T01:52:29.437Z,6.13
2018-05-17T01:54:57.399Z,4.80
2018-05-17T01:57:25.268Z,6.20
2018-05-17T01:59:53.213Z,5.30
2018-05-17T02:02:22.058Z,4.67
2018-05-17T02:04:49.956Z,7.00
2018-05-17T02:07:17.885Z,6.80
2018-05-17T02:09:45.713Z,5.87
2018-05-17T02:12:13.583Z,8.17
2018-05-17T02:14:41.509Z,7.33
2018-05-17T02:17:10.188Z,6.70
2018-05-17T02:19:38.117Z,6.37
2018-05-17T02:22:06.067Z,6.17
2018-05-17T02:24:33.926Z,7.53
2018-05-17T02:27:01.809Z,6.77
2018-05-17T02:29:29.701Z,6.33
2018-05-17T02:31:57.592Z,8.40
2018-05-17T02:34:26.251Z,7.00
2018-05-17T02:36:54.151Z,7.83
2018-05-17T02:39:22.841Z,6.43
2018-05-17T02:41:51.435Z,4.83
2018-05-17T02:44:19.397Z,4.23
2018-05-17T02:46:48.063Z,7.63
2018-05-17T02:49:16.068Z,5.87
2018-05-17T02:51:43.962Z,4.73
2018-05-17T02:54:11.850Z,4.70
2018-05-17T02:56:39.713Z,5.63
2018-05-17T02:59:07.610Z,5.43
2018-05-17T03:01:36.267Z,4.37
2018-05-17T03:04:04.137Z,6.23
2018-05-17T03:06:32.077Z,5.00
2018-05-17T03:08:59.929Z,5.13
2018-05-17T03:11:27.815Z,4.10
2018-05-17T03:13:55.732Z,6.40
2018-05-17T03:16:24.452Z,4.83
2018-05-17T03:18:52.306Z,5.33
2018-05-17T03:21:20.256Z,10.93
2018-05-17T03:23:48.979Z,5.37
2018-05-17T03:26:16.936Z,5.10
2018-05-17T03:28:44.783Z,5.40
2018-05-17T03:31:13.429Z,4.57
2018-05-17T03:33:41.293Z,4.73
2018-05-17T03:36:09.160Z,5.37
2018-05-17T03:38:37.038Z,5.17
2018-05-17T03:41:04.997Z,8.37
2018-05-17T03:43:32.948Z,9.57
2018-05-17T03:46:00.796Z,8.00
2018-05-17T03:48:28.735Z,9.70
2018-05-17T03:50:57.387Z,8.33
2018-05-17T03:53:25.262Z,8.50
2018-05-17T03:55:53.105Z,11.37
2018-05-17T03:58:21.036Z,8.80
2018-05-17T04:01:00.747Z,12.90
2018-05-17T04:03:40.893Z,8.47
2018-05-17T04:06:21.221Z,6.83
2018-05-17T04:08:49.115Z,7.23
2018-05-17T04:11:17.033Z,11.27
2018-05-17T04:13:44.936Z,7.70
2018-05-17T04:16:12.826Z,8.10
2018-05-17T04:18:40.670Z,10.43
2018-05-17T04:21:08.529Z,9.50
2018-05-17T04:23:36.373Z,7.43
2018-05-17T04:26:04.272Z,7.50
2018-05-17T04:28:32.223Z,7.17
2018-05-17T04:31:00.188Z,7.00
2018-05-17T04:33:28.043Z,8.20
2018-05-17T04:35:55.892Z,7.07
2018-05-17T04:38:23.733Z,9.43
2018-05-17T04:40:51.679Z,12.10
2018-05-17T04:43:19.585Z,8.70
2018-05-17T04:45:48.237Z,10.40
2018-05-17T04:48:16.187Z,11.00
2018-05-17T04:50:44.098Z,8.00
2018-05-17T04:53:12.780Z,11.87
2018-05-17T04:55:40.732Z,8.57
2018-05-17T04:58:08.621Z,9.60
2018-05-17T05:00:37.249Z,8.47
2018-05-17T05:03:05.134Z,8.70
2018-05-17T05:05:33.002Z,9.80
2018-05-17T05:08:00.895Z,8.23
2018-05-17T05:10:29.600Z,8.60
2018-05-17T05:12:58.219Z,9.30
2018-05-17T05:15:26.084Z,10.17
2018-05-17T05:17:53.928Z,8.00
2018-05-17T05:20:21.917Z,9.30
2018-05-17T05:22:49.865Z,8.80
2018-05-17T05:25:17.741Z,7.70
2018-05-17T05:27:45.688Z,9.63
2018-05-17T05:30:14.304Z,12.40
2018-05-17T05:32:42.267Z,7.00
2018-05-17T05:35:10.177Z,11.43
2018-05-17T05:37:38.085Z,9.87
2018-05-17T05:40:05.963Z,10.43
2018-05-17T05:42:33.808Z,9.90
2018-05-17T05:45:02.515Z,12.20
2018-05-17T05:47:30.449Z,7.87
2018-05-17T05:49:58.403Z,8.60
2018-05-17T05:52:26.370Z,11.30
2018-05-17T05:54:54.173Z,10.40
2018-05-17T05:57:22.782Z,7.90
2018-05-17T05:59:50.696Z,13.80
2018-05-17T06:02:18.536Z,10.30
2018-05-17T06:04:46.496Z,8.83
2018-05-17T06:07:15.151Z,14.50
2018-05-17T06:09:42.999Z,18.53
2018-05-17T06:12:11.579Z,13.20
2018-05-17T06:14:40.208Z,10.73
2018-05-17T06:17:08.145Z,17.03
2018-05-17T06:19:36.861Z,10.43
2018-05-17T06:22:05.571Z,9.13
2018-05-17T06:24:33.399Z,10.40
2018-05-17T06:27:01.262Z,17.33
2018-05-17T06:29:30.548Z,22.87
2018-05-17T06:31:59.183Z,16.90
2018-05-17T06:34:27.863Z,21.27
2018-05-17T06:36:55.814Z,26.03
2018-05-17T06:39:23.696Z,21.63
2018-05-17T06:41:51.576Z,23.60
2018-05-17T06:44:19.437Z,23.30
2018-05-17T06:46:47.284Z,24.07
2018-05-17T06:49:15.236Z,19.47
2018-05-17T06:51:43.211Z,16.00
2018-05-17T06:54:11.090Z,20.07
2018-05-17T06:56:39.017Z,16.80
2018-05-17T06:59:07.746Z,15.90
2018-05-17T07:01:35.623Z,12.63
2018-05-17T07:04:03.522Z,11.30
2018-05-17T07:06:32.193Z,9.17
2018-05-17T07:09:00.135Z,9.50
2018-05-17T07:11:28.033Z,9.70
2018-05-17T07:13:55.912Z,10.30
2018-05-17T07:16:23.764Z,10.10
2018-05-17T07:18:51.683Z,9.90
2018-05-17T07:21:19.629Z,9.20
2018-05-17T07:23:48.347Z,9.87
2018-05-17T07:26:16.689Z,8.83
2018-05-17T07:28:45.411Z,10.40
2018-05-17T07:31:13.307Z,12.37
2018-05-17T07:33:41.217Z,11.37
2018-05-17T07:36:12.229Z,13.07
2018-05-17T07:38:40.167Z,10.37
2018-05-17T07:41:08.779Z,14.00
2018-05-17T07:43:37.496Z,13.80
2018-05-17T07:46:06.176Z,11.73
2018-05-17T07:48:34.789Z,12.60
2018-05-17T07:51:02.660Z,15.50
2018-05-17T07:53:30.543Z,11.97
2018-05-17T07:55:58.837Z,13.80
2018-05-17T07:58:26.709Z,13.77
2018-05-17T08:00:54.525Z,13.20
2018-05-17T08:03:22.434Z,14.73
2018-05-17T08:06:00.198Z,19.83
2018-05-17T08:08:28.077Z,15.93
2018-05-17T08:10:55.946Z,18.50
2018-05-17T08:13:24.571Z,17.43
2018-05-17T08:15:52.404Z,15.87
2018-05-17T08:18:20.305Z,16.90
2018-05-17T08:20:48.156Z,17.90
2018-05-17T08:23:16.065Z,20.17
2018-05-17T08:25:44.023Z,18.07
2018-05-17T08:28:12.682Z,13.87
2018-05-17T08:30:40.555Z,16.60
2018-05-17T08:33:08.439Z,16.57
2018-05-17T08:35:37.128Z,15.67
2018-05-17T08:38:05.143Z,18.40
2018-05-17T08:40:32.985Z,17.87
2018-05-17T08:43:00.820Z,17.07
2018-05-17T08:45:29.440Z,19.60
2018-05-17T08:47:57.281Z,17.73
2018-05-17T08:50:25.932Z,18.43
2018-05-17T08:52:53.907Z,15.37
2018-05-17T08:55:21.832Z,16.30
2018-05-17T08:57:49.695Z,16.83
2018-05-17T09:00:17.540Z,20.67
2018-05-17T09:02:45.542Z,18.17
2018-05-17T09:05:13.417Z,22.00
2018-05-17T09:07:41.281Z,18.57
2018-05-17T09:10:09.173Z,21.20
2018-05-17T09:12:37.083Z,18.17
2018-05-17T09:15:05.039Z,15.10
2018-05-17T09:17:33.641Z,18.10
2018-05-17T09:20:01.666Z,17.60
2018-05-17T09:22:29.537Z,19.57
2018-05-17T09:24:57.416Z,20.10
2018-05-17T09:27:26.042Z,17.07
2018-05-17T09:29:53.976Z,15.63
2018-05-17T09:32:22.607Z,12.57
2018-05-17T09:34:50.489Z,10.50
2018-05-17T09:37:18.375Z,8.07
2018-05-17T09:39:46.249Z,11.87
2018-05-17T09:42:14.876Z,12.87
2018-05-17T09:44:42.778Z,15.63
2018-05-17T09:47:10.639Z,17.87
2018-05-17T09:49:38.515Z,14.80
2018-05-17T09:52:06.432Z,14.13
2018-05-17T09:54:34.367Z,14.70
2018-05-17T09:57:03.000Z,16.00
2018-05-17T09:59:30.925Z,13.37
2018-05-17T10:01:59.612Z,14.00
2018-05-17T10:04:28.264Z,13.90
2018-05-17T10:06:56.205Z,17.73
2018-05-17T10:09:24.041Z,16.23
2018-05-17T10:11:52.748Z,14.63
2018-05-17T10:14:20.604Z,20.63
2018-05-17T10:16:48.490Z,15.57
2018-05-17T10:19:16.408Z,14.33
2018-05-17T10:21:53.653Z,15.07
2018-05-17T10:24:21.663Z,16.93
2018-05-17T10:26:49.588Z,15.20
2018-05-17T10:29:17.441Z,16.97
2018-05-17T10:31:45.285Z,15.70
2018-05-17T10:34:13.992Z,19.50
2018-05-17T10:36:41.974Z,14.60
2018-05-17T10:39:09.853Z,13.47
2018-05-17T10:41:37.744Z,12.57
2018-05-17T10:44:05.616Z,12.80
2018-05-17T10:46:33.464Z,14.40
2018-05-17T10:49:01.389Z,12.80
2018-05-17T10:51:29.406Z,14.70
2018-05-17T10:53:57.298Z,11.90
2018-05-17T10:56:25.948Z,12.03
2018-05-17T10:58:53.911Z,11.27
2018-05-17T11:01:21.734Z,10.53
2018-05-17T11:03:49.623Z,10.30
2018-05-17T11:06:17.517Z,9.10
2018-05-17T11:08:45.421Z,10.80
2018-05-17T11:11:14.105Z,10.43
2018-05-17T11:13:42.701Z,8.00
2018-05-17T11:16:10.595Z,6.47
2018-05-17T11:18:38.949Z,7.43
2018-05-17T11:21:06.796Z,5.47
2018-05-17T11:23:35.419Z,5.80
2018-05-17T11:26:03.353Z,6.20
2018-05-17T11:28:31.282Z,5.17
2018-05-17T11:30:59.156Z,4.70
2018-05-17T11:33:27.025Z,4.73
2018-05-17T11:35:54.946Z,4.60
2018-05-17T11:38:22.784Z,5.33
2018-05-17T11:40:51.402Z,7.60
2018-05-17T11:43:19.274Z,4.17
2018-05-17T11:45:47.116Z,4.83
2018-05-17T11:48:15.751Z,5.17
2018-05-17T11:50:43.678Z,6.23
2018-05-17T11:53:11.520Z,8.50
2018-05-17T11:55:40.128Z,6.20
2018-05-17T11:58:08.005Z,7.10
2018-05-17T12:00:35.852Z,6.40
2018-05-17T12:03:04.569Z,6.37
2018-05-17T12:05:32.398Z,7.80
2018-05-17T12:08:01.021Z,7.70
2018-05-17T12:10:28.879Z,6.40
2018-05-17T12:12:56.789Z,6.57
2018-05-17T12:15:24.708Z,7.43
2018-05-17T12:17:52.617Z,8.40
2018-05-17T12:20:20.514Z,8.07
2018-05-17T12:22:49.112Z,8.50
2018-05-17T12:25:17.048Z,6.60
2018-05-17T12:27:44.894Z,6.10
2018-05-17T12:30:12.737Z,5.47
2018-05-17T12:32:40.619Z,6.37
2018-05-17T12:35:08.549Z,5.50
2018-05-17T12:37:36.445Z,5.33
2018-05-17T12:40:04.454Z,5.70
2018-05-17T12:42:32.337Z,5.90
2018-05-17T12:45:01.004Z,5.57
2018-05-17T12:47:30.083Z,5.93
2018-05-17T12:49:57.959Z,6.30
2018-05-17T12:52:26.840Z,5.97
2018-05-17T12:54:55.603Z,6.00
2018-05-17T12:57:24.303Z,7.40
2018-05-17T12:59:52.288Z,5.70
2018-05-17T13:02:20.140Z,4.83
2018-05-17T13:04:48.068Z,9.63
2018-05-17T13:07:15.943Z,6.70
2018-05-17T13:09:43.757Z,6.30
2018-05-17T13:12:11.610Z,6.90
2018-05-17T13:14:39.588Z,5.40
2018-05-17T13:17:07.449Z,6.90
2018-05-17T13:19:35.376Z,7.47
2018-05-17T13:22:03.233Z,7.33
2018-05-17T13:24:31.105Z,7.17
2018-05-17T13:26:59.026Z,6.60
2018-05-17T13:29:26.911Z,7.57
2018-05-17T13:31:55.536Z,6.50
2018-05-17T13:34:23.393Z,10.77
2018-05-17T13:36:51.381Z,9.37
2018-05-17T13:39:19.239Z,6.17
2018-05-17T13:41:47.195Z,6.90
2018-05-17T13:44:15.124Z,8.13
2018-05-17T13:46:43.021Z,6.80
2018-05-17T13:49:10.996Z,6.87
2018-05-17T13:51:38.883Z,9.37
2018-05-17T13:54:06.832Z,7.33
2018-05-17T13:56:34.697Z,7.10
2018-05-17T13:59:02.565Z,7.20
2018-05-17T14:01:30.422Z,6.40
2018-05-17T14:03:58.367Z,6.00
2018-05-17T14:06:26.215Z,7.07
2018-05-17T14:08:54.089Z,6.70
2018-05-17T14:11:22.005Z,5.60
2018-05-17T14:13:49.930Z,5.60
2018-05-17T14:16:17.782Z,5.50
2018-05-17T14:18:46.760Z,5.87
2018-05-17T14:21:14.641Z,4.50
2018-05-17T14:23:42.586Z,4.97
2018-05-17T14:26:10.420Z,4.00
2018-05-17T14:28:38.253Z,4.30
2018-05-17T14:31:06.135Z,3.70
2018-05-17T14:33:34.829Z,4.27
2018-05-17T14:36:03.522Z,3.90
2018-05-17T14:38:32.244Z,4.90
2018-05-17T14:41:00.119Z,6.00
2018-05-17T14:43:27.965Z,4.70
2018-05-17T14:45:55.916Z,5.60
2018-05-17T14:48:23.862Z,4.77
2018-05-17T14:50:52.524Z,3.40
2018-05-17T14:53:20.400Z,5.53
2018-05-17T14:55:49.313Z,2.97
2018-05-17T14:58:17.313Z,8.83
2018-05-17T15:00:45.173Z,5.50
2018-05-17T15:03:13.984Z,6.50
2018-05-17T15:05:41.945Z,5.70
2018-05-17T15:08:09.782Z,3.80
2018-05-17T15:10:37.721Z,3.00
2018-05-17T15:13:05.691Z,4.20
2018-05-17T15:15:33.679Z,3.70
2018-05-17T15:18:02.260Z,4.13
2018-05-17T15:20:30.901Z,8.23
2018-05-17T15:22:58.824Z,4.47
2018-05-17T15:25:26.744Z,8.90
2018-05-17T15:27:54.648Z,6.80
2018-05-17T15:30:23.269Z,5.03
2018-05-17T15:32:51.170Z,3.93
2018-05-17T15:35:19.080Z,6.20
2018-05-17T15:37:46.961Z,4.57
2018-05-17T15:40:14.843Z,3.90
2018-05-17T15:42:42.788Z,8.60
2018-05-17T15:45:10.647Z,6.80
2018-05-17T15:47:38.516Z,8.40
2018-05-17T15:50:06.363Z,5.13
2018-05-17T15:52:34.995Z,9.33
2018-05-17T15:55:02.834Z,3.17
2018-05-17T15:57:30.709Z,4.47
2018-05-17T15:59:58.620Z,7.20
2018-05-17T16:02:26.580Z,13.53
2018-05-17T16:04:54.437Z,7.20
2018-05-17T16:07:22.434Z,4.87
2018-05-17T16:09:50.381Z,6.50
2018-05-17T16:12:18.241Z,5.47
2018-05-17T16:14:46.253Z,5.93
2018-05-17T16:17:14.208Z,5.87
2018-05-17T16:19:42.139Z,5.93
2018-05-17T16:22:09.996Z,6.70
2018-05-17T16:24:37.860Z,6.70
2018-05-17T16:27:05.831Z,7.33
2018-05-17T16:29:33.706Z,4.93
2018-05-17T16:32:01.584Z,6.40
2018-05-17T16:34:29.488Z,10.00
2018-05-17T16:36:58.123Z,15.47
2018-05-17T16:39:26.076Z,3.87
2018-05-17T16:41:53.901Z,5.33
2018-05-17T16:44:21.850Z,9.10
2018-05-17T16:46:49.784Z,5.60
2018-05-17T16:49:17.653Z,5.10
2018-05-17T16:51:45.565Z,4.53
2018-05-17T16:54:13.487Z,5.53
2018-05-17T16:56:41.335Z,6.40
2018-05-17T16:59:09.211Z,4.70
2018-05-17T17:01:37.121Z,5.87
2018-05-17T17:04:06.527Z,5.30
2018-05-17T17:06:34.470Z,4.77
2018-05-17T17:09:02.332Z,5.70
2018-05-17T17:11:30.253Z,4.03
2018-05-17T17:13:58.891Z,10.40
2018-05-17T17:16:26.790Z,7.13
2018-05-17T17:18:55.158Z,3.73
2018-05-17T17:21:23.028Z,6.77
2018-05-17T17:23:50.988Z,5.20
2018-05-17T17:26:18.857Z,4.93
2018-05-17T17:28:46.680Z,7.07
2018-05-17T17:31:14.657Z,6.07
2018-05-17T17:33:42.525Z,10.80
2018-05-17T17:36:10.380Z,3.77
2018-05-17T17:38:38.242Z,4.67
2018-05-17T17:41:06.084Z,7.70
2018-05-17T17:43:34.768Z,3.33
2018-05-17T17:46:03.455Z,4.57
2018-05-17T17:48:32.090Z,7.30
2018-05-17T17:51:01.105Z,4.20
2018-05-17T17:53:29.059Z,5.43
2018-05-17T17:55:56.940Z,5.27
2018-05-17T17:58:24.807Z,4.23
2018-05-17T18:00:53.465Z,17.63
2018-05-17T18:03:21.345Z,8.57
2018-05-17T18:05:49.207Z,8.50
2018-05-17T18:08:17.068Z,3.90
2018-05-17T18:10:44.967Z,11.50
2018-05-17T18:13:12.949Z,9.73
2018-05-17T18:15:40.890Z,5.60
2018-05-17T18:18:08.740Z,7.97
2018-05-17T18:20:36.568Z,5.60
2018-05-17T18:23:04.508Z,5.87
2018-05-17T18:25:32.444Z,5.50
2018-05-17T18:28:00.386Z,4.43
2018-05-17T18:30:28.220Z,5.00
2018-05-17T18:32:56.139Z,6.93
2018-05-17T18:35:24.094Z,4.33
2018-05-17T18:37:52.055Z,4.30
2018-05-17T18:40:19.954Z,5.37
2018-05-17T18:42:47.862Z,5.53
2018-05-17T18:45:16.460Z,4.97
2018-05-17T18:47:45.144Z,4.03
2018-05-17T18:50:13.753Z,4.00
2018-05-17T18:52:41.637Z,7.30
2018-05-17T18:55:09.620Z,4.47
2018-05-17T18:57:37.493Z,3.90
2018-05-17T19:00:06.353Z,8.33
2018-05-17T19:02:34.213Z,9.23
2018-05-17T19:05:02.186Z,8.83
2018-05-17T19:07:30.020Z,5.10
2018-05-17T19:09:58.775Z,6.60
2018-05-17T19:12:26.708Z,4.60
2018-05-17T19:14:54.662Z,6.80
2018-05-17T19:17:22.622Z,4.20
2018-05-17T19:19:50.506Z,3.80
2018-05-17T19:22:18.353Z,9.47
2018-05-17T19:24:46.254Z,4.70
2018-05-17T19:27:14.225Z,4.70
2018-05-17T19:29:42.124Z,4.90
2018-05-17T19:32:10.150Z,4.60
2018-05-17T19:34:38.099Z,4.87
2018-05-17T19:37:06.161Z,4.57
2018-05-17T19:39:34.043Z,4.17
2018-05-17T19:42:01.919Z,4.87
2018-05-17T19:44:29.871Z,4.77
2018-05-17T19:46:57.875Z,5.20
2018-05-17T19:49:25.753Z,4.03
2018-05-17T19:52:07.426Z,4.53
2018-05-17T19:54:35.391Z,6.33
2018-05-17T19:57:03.333Z,4.93
2018-05-17T19:59:31.394Z,7.33
2018-05-17T20:02:00.100Z,5.10
2018-05-17T20:04:35.364Z,7.33
2018-05-17T20:07:03.876Z,5.90
2018-05-17T20:09:31.814Z,4.77
2018-05-17T20:11:59.684Z,5.10
2018-05-17T20:14:27.608Z,6.27
2018-05-17T20:16:56.287Z,5.73
2018-05-17T20:19:24.964Z,4.03
2018-05-17T20:21:52.941Z,5.33
2018-05-17T20:24:21.576Z,4.80
2018-05-17T20:26:51.328Z,6.07
2018-05-17T20:29:19.991Z,4.97
2018-05-17T20:31:47.793Z,7.00
2018-05-17T20:34:16.504Z,5.33
2018-05-17T20:36:44.464Z,4.13
2018-05-17T20:39:12.385Z,4.17
2018-05-17T20:41:41.104Z,6.27
2018-05-17T20:44:09.743Z,4.77
2018-05-17T20:46:37.617Z,5.40
2018-05-17T20:49:05.476Z,4.13
2018-05-17T20:51:33.444Z,7.13
2018-05-17T20:54:01.308Z,3.80
2018-05-17T20:56:29.173Z,6.50
2018-05-17T20:58:57.117Z,6.10
2018-05-17T21:01:25.012Z,6.30
2018-05-17T21:03:52.904Z,5.70
2018-05-17T21:06:20.776Z,4.77
2018-05-17T21:08:49.398Z,4.13
2018-05-17T21:11:17.312Z,5.23
2018-05-17T21:13:45.135Z,4.07
2018-05-17T21:16:13.057Z,3.43
2018-05-17T21:18:40.946Z,4.43
2018-05-17T21:21:08.857Z,5.80
2018-05-17T21:23:36.696Z,5.50
2018-05-17T21:26:04.580Z,7.90
2018-05-17T21:28:32.446Z,4.50
2018-05-17T21:31:00.300Z,6.20
2018-05-17T21:33:28.172Z,7.63
2018-05-17T21:35:56.065Z,4.93
2018-05-17T21:38:23.892Z,6.00
2018-05-17T21:40:51.796Z,5.47
2018-05-17T21:43:19.664Z,5.63
2018-05-17T21:45:47.646Z,4.20
2018-05-17T21:48:15.512Z,5.90
2018-05-17T21:50:43.468Z,8.60
2018-05-17T21:53:11.407Z,6.70
2018-05-17T21:55:39.259Z,5.07
2018-05-17T21:58:07.108Z,7.23
2018-05-17T22:00:35.777Z,4.60
2018-05-17T22:03:03.722Z,4.30
2018-05-17T22:05:31.659Z,6.27
2018-05-17T22:07:59.539Z,4.60
2018-05-17T22:10:27.388Z,6.33
2018-05-17T22:12:55.261Z,4.87
2018-05-17T22:15:23.130Z,4.60
2018-05-17T22:17:51.177Z,4.50
2018-05-17T22:20:19.144Z,5.53
2018-05-17T22:22:47.124Z,5.27
2018-05-17T22:25:15.091Z,5.77
2018-05-17T22:27:43.020Z,4.60
2018-05-17T22:30:10.915Z,5.60
2018-05-17T22:32:39.550Z,7.47
2018-05-17T22:35:07.389Z,5.43
2018-05-17T22:37:35.330Z,7.90
2018-05-17T22:40:03.943Z,5.90
2018-05-17T22:42:31.886Z,5.63
2018-05-17T22:44:59.750Z,8.53
2018-05-17T22:47:27.687Z,4.60
2018-05-17T22:49:55.612Z,5.37
2018-05-17T22:52:23.513Z,5.43
2018-05-17T22:54:51.429Z,6.13
2018-05-17T22:57:31.147Z,7.40
2018-05-17T22:59:59.075Z,5.60
2018-05-17T23:02:26.984Z,5.80
2018-05-17T23:04:55.624Z,8.13
2018-05-17T23:07:23.455Z,8.23
2018-05-17T23:09:51.343Z,8.90
2018-05-17T23:12:20.177Z,7.10
2018-05-17T23:14:48.103Z,12.43
2018-05-17T23:17:15.981Z,14.27
2018-05-17T23:19:44.012Z,10.63
2018-05-17T23:25:11.889Z,13.20
2018-05-17T23:27:40.578Z,9.27
2018-05-17T23:30:09.168Z,6.83
2018-05-17T23:32:37.161Z,6.73
2018-05-17T23:35:05.185Z,7.33
2018-05-17T23:37:33.949Z,6.87
2018-05-17T23:40:13.897Z,5.73
2018-05-17T23:42:41.847Z,8.33
2018-05-17T23:45:09.857Z,5.13
2018-05-17T23:47:37.788Z,5.63
2018-05-17T23:50:05.809Z,12.47
2018-05-17T23:52:34.479Z,5.00
2018-05-17T23:55:02.415Z,6.63
2018-05-17T23:57:30.352Z,5.97
2018-05-17T23:59:58.357Z,7.90
